createdAt,value
2017-07-11T00:02:18.727Z,86.03
2017-07-11T00:04:47.777Z,86.54
2017-07-11T00:07:16.869Z,86.29
2017-07-11T00:09:45.908Z,86.48
2017-07-11T00:12:14.980Z,86.45
2017-07-11T00:14:44.033Z,86.69
2017-07-11T00:17:13.136Z,86.73
2017-07-11T00:19:42.196Z,86.74
2017-07-11T00:22:12.022Z,86.64
2017-07-11T00:24:41.844Z,86.55
2017-07-11T00:27:10.896Z,86.70
2017-07-11T00:29:39.957Z,86.49
2017-07-11T00:32:09.044Z,85.84
2017-07-11T00:34:38.084Z,86.26
2017-07-11T00:37:07.161Z,86.04
2017-07-11T00:39:36.212Z,85.98
2017-07-11T00:42:06.036Z,86.06
2017-07-11T00:44:35.105Z,86.25
2017-07-11T00:47:05.224Z,86.43
2017-07-11T00:49:34.272Z,86.80
2017-07-11T00:52:03.322Z,86.27
2017-07-11T00:54:33.171Z,86.63
2017-07-11T00:57:02.253Z,86.71
2017-07-11T00:59:31.335Z,86.41
2017-07-11T01:02:00.377Z,86.50
2017-07-11T01:04:29.456Z,86.65
2017-07-11T01:06:58.617Z,86.76
2017-07-11T01:09:27.681Z,86.71
2017-07-11T01:11:56.721Z,86.59
2017-07-11T01:14:25.781Z,86.97
2017-07-11T01:16:54.868Z,86.98
2017-07-11T01:19:23.925Z,86.79
2017-07-11T01:21:53.008Z,86.80
2017-07-11T01:24:22.051Z,86.71
2017-07-11T01:26:51.116Z,86.43
2017-07-11T01:29:20.169Z,86.56
2017-07-11T01:31:49.308Z,86.41
2017-07-11T01:34:18.373Z,86.61
2017-07-11T01:36:48.181Z,86.32
2017-07-11T01:39:17.264Z,86.24
2017-07-11T01:41:47.085Z,86.44
2017-07-11T01:44:16.168Z,86.45
2017-07-11T01:46:46.024Z,86.51
2017-07-11T01:49:15.086Z,86.55
2017-07-11T01:51:44.905Z,86.53
2017-07-11T01:54:13.952Z,86.92
2017-07-11T01:56:43.037Z,86.83
2017-07-11T01:59:12.079Z,86.32
2017-07-11T02:01:41.160Z,86.15
2017-07-11T02:04:10.233Z,86.29
2017-07-11T02:06:40.149Z,86.01
2017-07-11T02:09:09.233Z,85.91
2017-07-11T02:11:38.289Z,85.67
2017-07-11T02:14:08.395Z,85.98
2017-07-11T02:16:37.440Z,85.49
2017-07-11T02:19:06.522Z,85.40
2017-07-11T02:21:35.588Z,85.80
2017-07-11T02:24:04.665Z,85.62
2017-07-11T02:26:33.723Z,85.85
2017-07-11T02:29:02.860Z,85.87
2017-07-11T02:31:31.939Z,85.12
2017-07-11T02:34:01.017Z,85.90
2017-07-11T02:36:30.078Z,85.61
2017-07-11T02:38:59.124Z,85.87
2017-07-11T02:41:28.935Z,85.19
2017-07-11T02:43:58.768Z,85.41
2017-07-11T02:46:27.841Z,85.18
2017-07-11T02:48:56.895Z,84.97
2017-07-11T02:51:25.965Z,85.27
2017-07-11T02:53:55.221Z,85.03
2017-07-11T02:56:24.301Z,85.68
2017-07-11T02:58:53.365Z,85.26
2017-07-11T03:01:22.434Z,85.05
2017-07-11T03:03:52.301Z,85.04
2017-07-11T03:06:21.488Z,84.40
2017-07-11T03:08:50.579Z,84.87
2017-07-11T03:11:19.627Z,84.33
2017-07-11T03:13:48.663Z,84.68
2017-07-11T03:16:17.714Z,84.24
2017-07-11T03:18:47.540Z,83.55
2017-07-11T03:21:16.584Z,83.73
2017-07-11T03:23:45.673Z,83.96
2017-07-11T03:26:14.763Z,83.59
2017-07-11T03:28:43.801Z,82.81
2017-07-11T03:31:12.866Z,83.18
2017-07-11T03:33:41.926Z,83.59
2017-07-11T03:36:11.013Z,81.89
2017-07-11T03:38:40.803Z,82.03
2017-07-11T03:41:09.882Z,82.59
2017-07-11T03:43:39.354Z,82.26
2017-07-11T03:46:08.421Z,80.95
2017-07-11T03:48:39.035Z,81.51
2017-07-11T03:51:08.843Z,81.14
2017-07-11T03:53:37.890Z,81.90
2017-07-11T03:56:07.008Z,81.23
2017-07-11T03:58:36.020Z,81.87
2017-07-11T04:01:05.841Z,81.88
2017-07-11T04:03:34.895Z,81.40
2017-07-11T04:06:03.989Z,81.68
2017-07-11T04:08:33.135Z,81.57
2017-07-11T04:11:02.181Z,81.62
2017-07-11T04:13:31.240Z,80.97
2017-07-11T04:16:00.305Z,81.79
2017-07-11T04:18:29.345Z,81.75
2017-07-11T04:20:58.413Z,81.09
2017-07-11T04:23:28.240Z,81.86
2017-07-11T04:25:57.284Z,81.22
2017-07-11T04:28:26.358Z,81.27
2017-07-11T04:30:55.403Z,81.00
2017-07-11T04:33:24.452Z,81.21
2017-07-11T04:35:53.524Z,81.41
2017-07-11T04:38:22.574Z,81.86
2017-07-11T04:40:52.419Z,80.92
2017-07-11T04:43:21.455Z,80.41
2017-07-11T04:45:50.533Z,80.38
2017-07-11T04:48:19.832Z,80.80
2017-07-11T04:50:48.891Z,80.40
2017-07-11T04:53:17.979Z,81.11
2017-07-11T04:55:47.882Z,80.65
2017-07-11T04:58:16.929Z,80.64
2017-07-11T05:00:46.000Z,81.04
2017-07-11T05:03:15.901Z,81.00
2017-07-11T05:05:44.979Z,79.47
2017-07-11T05:08:14.828Z,80.49
2017-07-11T05:10:43.936Z,79.65
2017-07-11T05:13:12.995Z,79.47
2017-07-11T05:15:42.085Z,79.28
2017-07-11T05:18:11.909Z,78.87
2017-07-11T05:20:40.958Z,80.05
2017-07-11T05:23:10.772Z,79.75
2017-07-11T05:25:39.840Z,79.45
2017-07-11T05:28:08.956Z,79.87
2017-07-11T05:30:38.019Z,79.12
2017-07-11T05:33:07.067Z,79.43
2017-07-11T05:35:36.124Z,79.05
2017-07-11T05:38:05.179Z,78.79
2017-07-11T05:40:35.018Z,77.94
2017-07-11T05:43:04.060Z,78.82
2017-07-11T05:45:33.132Z,78.10
2017-07-11T05:48:02.176Z,77.46
2017-07-11T05:50:31.229Z,77.06
2017-07-11T05:53:00.287Z,76.63
2017-07-11T05:55:29.656Z,77.06
2017-07-11T05:57:58.699Z,77.37
2017-07-11T06:00:27.918Z,77.58
2017-07-11T06:02:56.999Z,76.87
2017-07-11T06:05:26.061Z,75.24
2017-07-11T06:07:55.135Z,75.24
2017-07-11T06:10:24.986Z,74.28
2017-07-11T06:12:54.076Z,73.07
2017-07-11T06:15:23.119Z,73.72
2017-07-11T06:17:52.204Z,72.08
2017-07-11T06:20:21.274Z,71.93
2017-07-11T06:22:50.336Z,72.56
2017-07-11T06:25:19.382Z,73.39
2017-07-11T06:27:48.425Z,72.95
2017-07-11T06:30:17.477Z,72.85
2017-07-11T06:32:46.546Z,73.68
2017-07-11T06:35:15.639Z,72.33
2017-07-11T06:37:44.737Z,72.36
2017-07-11T06:40:13.800Z,70.58
2017-07-11T06:42:43.613Z,71.24
2017-07-11T06:45:12.668Z,71.46
2017-07-11T06:47:41.748Z,72.02
2017-07-11T06:50:10.799Z,71.54
2017-07-11T06:52:40.599Z,71.96
2017-07-11T06:55:10.645Z,73.12
2017-07-11T06:57:40.462Z,72.17
2017-07-11T07:00:09.545Z,72.17
2017-07-11T07:02:38.613Z,72.36
2017-07-11T07:05:08.477Z,73.07
2017-07-11T07:07:37.696Z,74.25
2017-07-11T07:10:06.760Z,73.12
2017-07-11T07:12:35.866Z,72.83
2017-07-11T07:15:04.942Z,72.87
2017-07-11T07:17:34.013Z,72.98
2017-07-11T07:20:03.865Z,73.12
2017-07-11T07:22:33.040Z,72.52
2017-07-11T07:25:02.160Z,72.98
2017-07-11T07:27:31.248Z,73.12
2017-07-11T07:30:00.336Z,72.03
2017-07-11T07:32:30.168Z,72.42
2017-07-11T07:34:59.264Z,72.85
2017-07-11T07:37:28.364Z,72.32
2017-07-11T07:39:57.412Z,72.63
2017-07-11T07:42:27.232Z,72.35
2017-07-11T07:44:56.341Z,73.23
2017-07-11T07:47:25.413Z,72.25
2017-07-11T07:49:55.269Z,72.81
2017-07-11T07:52:24.313Z,72.96
2017-07-11T07:54:54.152Z,73.35
2017-07-11T07:57:25.023Z,73.79
2017-07-11T07:59:55.153Z,73.32
2017-07-11T08:02:24.315Z,73.68
2017-07-11T08:04:53.348Z,73.82
2017-07-11T08:07:22.470Z,73.25
2017-07-11T08:09:52.310Z,72.74
2017-07-11T08:12:21.363Z,72.18
2017-07-11T08:14:50.454Z,73.24
2017-07-11T08:17:19.529Z,72.77
2017-07-11T08:19:48.626Z,73.14
2017-07-11T08:22:17.692Z,73.53
2017-07-11T08:24:46.778Z,73.19
2017-07-11T08:27:15.822Z,73.34
2017-07-11T08:29:44.986Z,72.45
2017-07-11T08:32:14.043Z,72.84
2017-07-11T08:34:43.117Z,73.06
2017-07-11T08:37:12.215Z,72.46
2017-07-11T08:39:41.269Z,73.40
2017-07-11T08:42:10.509Z,72.42
2017-07-11T08:44:39.608Z,72.02
2017-07-11T08:47:08.730Z,71.65
2017-07-11T08:49:37.756Z,71.59
2017-07-11T08:52:06.848Z,71.74
2017-07-11T08:54:35.943Z,69.53
2017-07-11T08:57:05.109Z,69.41
2017-07-11T08:59:34.196Z,68.66
2017-07-11T09:02:04.124Z,68.80
2017-07-11T09:04:33.977Z,68.21
2017-07-11T09:07:03.047Z,69.48
2017-07-11T09:09:32.097Z,69.22
2017-07-11T09:12:01.196Z,69.65
2017-07-11T09:14:31.039Z,70.17
2017-07-11T09:17:00.127Z,70.40
2017-07-11T09:19:29.187Z,69.80
2017-07-11T09:21:58.329Z,69.78
2017-07-11T09:24:27.385Z,70.49
2017-07-11T09:26:56.457Z,70.57
2017-07-11T09:29:25.527Z,70.42
2017-07-11T09:31:54.612Z,69.49
2017-07-11T09:34:23.704Z,69.22
2017-07-11T09:36:52.769Z,68.86
2017-07-11T09:39:22.593Z,67.98
2017-07-11T09:41:52.447Z,69.21
2017-07-11T09:44:21.509Z,69.35
2017-07-11T09:46:50.589Z,66.05
2017-07-11T09:49:20.434Z,66.28
2017-07-11T09:51:49.516Z,65.85
2017-07-11T09:54:18.576Z,65.96
2017-07-11T09:56:47.651Z,63.61
2017-07-11T09:59:17.065Z,63.37
2017-07-11T10:01:46.147Z,63.60
2017-07-11T10:04:15.227Z,63.13
2017-07-11T10:06:44.274Z,63.64
2017-07-11T10:09:14.092Z,62.51
2017-07-11T10:11:43.175Z,62.30
2017-07-11T10:14:12.336Z,61.86
2017-07-11T10:16:41.395Z,61.52
2017-07-11T10:19:11.200Z,61.14
2017-07-11T10:21:40.272Z,60.74
2017-07-11T10:24:09.384Z,59.97
2017-07-11T10:26:38.478Z,61.07
2017-07-11T10:29:08.307Z,60.20
2017-07-11T10:31:37.441Z,59.54
2017-07-11T10:34:06.486Z,57.76
2017-07-11T10:36:36.304Z,56.21
2017-07-11T10:39:05.442Z,58.07
2017-07-11T10:41:34.479Z,58.66
2017-07-11T10:44:04.321Z,57.54
2017-07-11T10:46:34.145Z,56.72
2017-07-11T10:49:03.242Z,56.42
2017-07-11T10:51:32.280Z,55.60
2017-07-11T10:54:01.328Z,55.25
2017-07-11T10:56:30.422Z,55.50
2017-07-11T10:58:59.482Z,53.76
2017-07-11T11:01:29.355Z,54.65
2017-07-11T11:03:58.433Z,54.15
2017-07-11T11:06:27.492Z,54.08
2017-07-11T11:08:57.357Z,55.61
2017-07-11T11:11:26.411Z,54.09
2017-07-11T11:13:55.638Z,55.81
2017-07-11T11:16:24.738Z,55.96
2017-07-11T11:18:53.796Z,55.63
2017-07-11T11:21:23.611Z,55.09
2017-07-11T11:23:52.659Z,52.63
2017-07-11T11:26:21.723Z,53.78
2017-07-11T11:28:50.769Z,54.05
2017-07-11T11:31:19.835Z,54.23
2017-07-11T11:33:48.919Z,51.04
2017-07-11T11:36:17.969Z,53.73
2017-07-11T11:38:47.795Z,51.68
2017-07-11T11:41:16.851Z,52.26
2017-07-11T11:43:45.902Z,53.32
2017-07-11T11:46:14.969Z,51.84
2017-07-11T11:48:44.004Z,51.25
2017-07-11T11:51:13.224Z,50.65
2017-07-11T11:53:42.365Z,48.44
2017-07-11T11:56:11.397Z,49.47
2017-07-11T11:58:40.470Z,49.73
2017-07-11T12:01:09.566Z,50.04
2017-07-11T12:03:38.634Z,48.89
2017-07-11T12:06:07.742Z,49.55
2017-07-11T12:08:37.544Z,47.08
2017-07-11T12:11:06.737Z,48.15
2017-07-11T12:13:35.790Z,48.22
2017-07-11T12:16:05.413Z,47.52
2017-07-11T12:18:34.476Z,46.46
2017-07-11T12:21:03.526Z,47.29
2017-07-11T12:23:33.355Z,45.16
2017-07-11T12:26:02.416Z,44.12
2017-07-11T12:28:31.473Z,44.09
2017-07-11T12:31:00.584Z,45.70
2017-07-11T12:33:29.616Z,44.18
2017-07-11T12:35:59.434Z,44.22
2017-07-11T12:38:29.312Z,44.61
2017-07-11T12:40:58.401Z,46.49
2017-07-11T12:43:27.421Z,44.50
2017-07-11T12:45:56.524Z,43.11
2017-07-11T12:48:25.586Z,42.69
2017-07-11T12:50:54.643Z,44.13
2017-07-11T12:53:23.748Z,43.85
2017-07-11T12:55:52.809Z,45.13
2017-07-11T12:58:22.651Z,44.25
2017-07-11T13:00:51.734Z,44.75
2017-07-11T13:03:21.564Z,45.67
2017-07-11T13:05:50.716Z,44.50
2017-07-11T13:08:20.573Z,45.37
2017-07-11T13:10:49.648Z,44.38
2017-07-11T13:13:19.504Z,44.74
2017-07-11T13:15:48.567Z,45.74
2017-07-11T13:18:17.941Z,45.26
2017-07-11T13:20:47.021Z,45.06
2017-07-11T13:23:16.091Z,44.76
2017-07-11T13:25:45.170Z,45.55
2017-07-11T13:28:14.261Z,46.00
2017-07-11T13:30:43.327Z,46.39
2017-07-11T13:33:13.351Z,45.53
2017-07-11T13:35:42.438Z,45.50
2017-07-11T13:38:12.260Z,46.58
2017-07-11T13:40:41.332Z,44.91
2017-07-11T13:43:10.400Z,44.10
2017-07-11T13:45:39.471Z,44.59
2017-07-11T13:48:08.567Z,44.77
2017-07-11T13:50:37.625Z,45.24
2017-07-11T13:53:07.081Z,44.83
2017-07-11T13:55:36.136Z,45.82
2017-07-11T13:58:05.990Z,46.11
2017-07-11T14:00:35.056Z,47.36
2017-07-11T14:03:04.257Z,45.55
2017-07-11T14:05:33.316Z,46.37
2017-07-11T14:08:02.423Z,45.40
2017-07-11T14:10:32.497Z,45.26
2017-07-11T14:13:01.548Z,46.32
2017-07-11T14:15:30.710Z,45.58
2017-07-11T14:17:59.806Z,44.84
2017-07-11T14:20:28.912Z,44.46
2017-07-11T14:22:57.946Z,45.78
2017-07-11T14:25:27.231Z,45.23
2017-07-11T14:27:56.375Z,45.60
2017-07-11T14:30:25.402Z,45.86
2017-07-11T14:32:55.225Z,45.67
2017-07-11T14:35:24.348Z,44.31
2017-07-11T14:37:53.405Z,44.23
2017-07-11T14:40:23.496Z,45.94
2017-07-11T14:42:52.560Z,44.86
2017-07-11T14:45:21.618Z,45.02
2017-07-11T14:47:50.708Z,46.14
2017-07-11T14:50:20.575Z,45.72
2017-07-11T14:52:49.612Z,45.49
2017-07-11T14:55:19.464Z,46.99
2017-07-11T14:57:48.534Z,45.14
2017-07-11T15:00:18.341Z,45.83
2017-07-11T15:02:47.439Z,45.20
2017-07-11T15:05:17.262Z,45.33
2017-07-11T15:07:46.307Z,45.77
2017-07-11T15:10:15.364Z,45.86
2017-07-11T15:12:44.425Z,46.07
2017-07-11T15:15:14.582Z,46.64
2017-07-11T15:17:44.402Z,47.06
2017-07-11T15:20:13.467Z,46.98
2017-07-11T15:22:43.306Z,46.52
2017-07-11T15:25:12.388Z,47.05
2017-07-11T15:27:41.485Z,46.69
2017-07-11T15:30:10.564Z,47.64
2017-07-11T15:32:40.392Z,46.23
2017-07-11T15:35:09.474Z,46.17
2017-07-11T15:37:39.299Z,45.73
2017-07-11T15:40:08.399Z,45.10
2017-07-11T15:42:38.208Z,45.38
2017-07-11T15:45:07.308Z,45.26
2017-07-11T15:47:36.396Z,46.59
2017-07-11T15:50:05.554Z,46.13
2017-07-11T15:52:34.641Z,45.18
2017-07-11T15:55:03.740Z,44.75
2017-07-11T15:57:32.813Z,45.56
2017-07-11T16:00:01.887Z,46.61
2017-07-11T16:02:30.960Z,46.79
2017-07-11T16:05:00.777Z,45.10
2017-07-11T16:07:29.850Z,45.39
2017-07-11T16:09:59.676Z,45.29
2017-07-11T16:12:28.952Z,45.69
2017-07-11T16:14:57.995Z,43.80
2017-07-11T16:17:27.069Z,46.14
2017-07-11T16:19:56.907Z,44.57
2017-07-11T16:22:25.967Z,45.32
2017-07-11T16:24:55.021Z,45.08
2017-07-11T16:27:24.116Z,45.57
2017-07-11T16:29:53.174Z,44.28
2017-07-11T16:32:22.553Z,45.14
2017-07-11T16:34:51.604Z,45.56
2017-07-11T16:37:20.705Z,45.24
2017-07-11T16:39:49.753Z,43.85
2017-07-11T16:42:18.828Z,47.91
2017-07-11T16:44:48.027Z,49.83
2017-07-11T16:47:17.898Z,51.23
2017-07-11T16:49:46.976Z,51.46
2017-07-11T16:52:16.033Z,51.60
2017-07-11T16:54:45.872Z,52.35
2017-07-11T16:57:14.937Z,52.43
2017-07-11T16:59:43.980Z,51.69
2017-07-11T17:02:13.061Z,52.47
2017-07-11T17:04:42.140Z,51.33
2017-07-11T17:07:11.257Z,52.26
2017-07-11T17:09:40.278Z,52.05
2017-07-11T17:12:09.364Z,52.49
2017-07-11T17:14:38.449Z,52.67
2017-07-11T17:17:07.493Z,53.03
2017-07-11T17:19:37.320Z,52.99
2017-07-11T17:22:06.483Z,53.58
2017-07-11T17:24:35.575Z,53.84
2017-07-11T17:27:04.624Z,54.16
2017-07-11T17:29:33.714Z,53.78
2017-07-11T17:34:30.988Z,53.98
2017-07-11T17:37:00.079Z,54.07
2017-07-11T17:39:29.161Z,54.26
2017-07-11T17:41:58.978Z,53.67
2017-07-11T17:44:29.178Z,53.49
2017-07-11T17:46:58.209Z,53.67
2017-07-11T17:49:27.262Z,53.30
2017-07-11T17:51:56.339Z,53.39
2017-07-11T17:54:25.413Z,54.08
2017-07-11T17:56:54.466Z,53.65
2017-07-11T17:59:23.544Z,53.40
2017-07-11T18:01:52.895Z,53.28
2017-07-11T18:04:21.969Z,53.57
2017-07-11T18:06:51.052Z,53.65
2017-07-11T18:09:20.151Z,52.85
2017-07-11T18:11:50.881Z,53.22
2017-07-11T18:14:21.420Z,53.06
2017-07-11T18:16:51.297Z,53.93
2017-07-11T18:19:20.417Z,54.78
2017-07-11T18:21:50.236Z,54.39
2017-07-11T18:24:20.069Z,57.25
2017-07-11T18:26:49.173Z,58.67
2017-07-11T18:29:18.523Z,59.68
2017-07-11T18:31:47.665Z,60.05
2017-07-11T18:34:16.721Z,60.35
2017-07-11T18:36:45.788Z,60.82
2017-07-11T18:39:14.872Z,61.48
2017-07-11T18:41:43.936Z,61.22
2017-07-11T18:44:13.049Z,61.26
2017-07-11T18:46:42.089Z,61.30
2017-07-11T18:49:11.169Z,61.59
2017-07-11T18:51:40.251Z,61.88
2017-07-11T18:54:09.304Z,61.57
2017-07-11T18:56:38.644Z,61.44
2017-07-11T18:59:07.728Z,61.63
2017-07-11T19:01:36.786Z,61.92
2017-07-11T19:04:06.793Z,61.32
2017-07-11T19:06:36.781Z,61.26
2017-07-11T19:09:05.868Z,61.50
2017-07-11T19:11:34.966Z,61.79
2017-07-11T19:14:04.041Z,62.05
2017-07-11T19:16:33.140Z,62.00
2017-07-11T19:19:02.315Z,62.42
2017-07-11T19:21:31.471Z,62.01
2017-07-11T19:24:00.586Z,62.31
2017-07-11T19:26:29.978Z,62.70
2017-07-11T19:28:59.044Z,62.57
2017-07-11T19:31:28.125Z,63.06
2017-07-11T19:33:57.173Z,63.23
2017-07-11T19:36:26.280Z,63.20
2017-07-11T19:38:55.448Z,63.25
2017-07-11T19:41:24.577Z,63.15
2017-07-11T19:43:53.629Z,63.34
2017-07-11T19:46:22.779Z,63.44
2017-07-11T19:48:51.988Z,63.74
2017-07-11T19:51:21.155Z,63.62
2017-07-11T19:53:50.215Z,64.07
2017-07-11T19:56:19.425Z,63.84
2017-07-11T19:58:48.510Z,64.33
2017-07-11T20:01:17.949Z,63.99
2017-07-11T20:03:48.987Z,63.26
2017-07-11T20:06:18.126Z,63.71
2017-07-11T20:08:47.230Z,66.07
2017-07-11T20:11:16.299Z,69.20
2017-07-11T20:13:45.425Z,71.28
2017-07-11T20:16:14.512Z,73.18
2017-07-11T20:18:43.568Z,73.59
2017-07-11T20:21:13.720Z,75.45
2017-07-11T20:23:42.857Z,77.07
2017-07-11T20:26:12.715Z,78.01
2017-07-11T20:28:41.788Z,78.65
2017-07-11T20:31:10.886Z,80.10
2017-07-11T20:33:39.946Z,79.11
2017-07-11T20:36:09.652Z,79.16
2017-07-11T20:38:38.792Z,80.14
2017-07-11T20:41:07.931Z,79.35
2017-07-11T20:43:37.287Z,79.94
2017-07-11T20:46:07.170Z,80.06
2017-07-11T20:48:36.269Z,79.85
2017-07-11T20:51:05.329Z,80.57
2017-07-11T20:53:34.403Z,80.62
2017-07-11T20:56:03.721Z,80.55
2017-07-11T20:58:32.790Z,80.95
2017-07-11T21:01:01.895Z,81.31
2017-07-11T21:03:30.964Z,81.07
2017-07-11T21:06:00.060Z,81.54
2017-07-11T21:08:29.873Z,81.55
2017-07-11T21:10:58.940Z,81.56
2017-07-11T21:13:28.023Z,81.64
2017-07-11T21:15:57.063Z,81.83
2017-07-11T21:18:26.179Z,82.12
2017-07-11T21:20:55.258Z,81.65
2017-07-11T21:23:24.357Z,81.56
2017-07-11T21:25:53.416Z,81.56
2017-07-11T21:28:22.709Z,82.10
2017-07-11T21:30:52.559Z,82.30
2017-07-11T21:33:21.621Z,82.32
2017-07-11T21:35:51.454Z,82.71
2017-07-11T21:38:20.541Z,82.72
2017-07-11T21:40:49.639Z,82.80
2017-07-11T21:43:19.441Z,82.38
2017-07-11T21:45:50.231Z,82.55
2017-07-11T21:48:20.254Z,82.37
2017-07-11T21:50:49.369Z,82.72
2017-07-11T21:53:18.755Z,82.59
2017-07-11T21:55:47.813Z,82.55
2017-07-11T21:58:16.881Z,82.13
2017-07-11T22:00:46.699Z,82.40
2017-07-11T22:03:15.780Z,82.83
2017-07-11T22:05:44.860Z,82.52
2017-07-11T22:08:14.351Z,82.41
2017-07-11T22:10:43.420Z,82.45
2017-07-11T22:13:12.460Z,82.53
2017-07-11T22:15:41.541Z,82.64
2017-07-11T22:18:10.644Z,82.46
2017-07-11T22:20:39.766Z,82.58
2017-07-11T22:23:08.770Z,82.39
2017-07-11T22:25:38.597Z,82.65
2017-07-11T22:28:07.676Z,82.85
2017-07-11T22:30:36.711Z,83.04
2017-07-11T22:33:05.783Z,83.08
2017-07-11T22:35:34.829Z,82.98
2017-07-11T22:38:03.953Z,83.26
2017-07-11T22:40:33.041Z,82.85
2017-07-11T22:43:02.868Z,82.92
2017-07-11T22:45:32.701Z,83.29
2017-07-11T22:48:01.769Z,83.52
2017-07-11T22:50:31.618Z,83.32
2017-07-11T22:53:00.688Z,82.92
2017-07-11T22:55:29.819Z,83.41
2017-07-11T22:57:59.134Z,82.99
2017-07-11T23:00:29.304Z,83.19
2017-07-11T23:02:59.129Z,83.21
2017-07-11T23:05:28.213Z,82.97
2017-07-11T23:07:58.028Z,82.94
2017-07-11T23:10:27.071Z,82.96
2017-07-11T23:12:56.137Z,83.05
2017-07-11T23:15:25.189Z,83.25
2017-07-11T23:17:55.109Z,83.42
2017-07-11T23:20:24.946Z,82.95
2017-07-11T23:22:54.774Z,82.54
2017-07-11T23:25:23.834Z,82.49
2017-07-11T23:27:52.891Z,82.78
2017-07-11T23:30:21.963Z,83.00
2017-07-11T23:32:51.036Z,82.57
2017-07-11T23:35:20.116Z,82.69
2017-07-11T23:37:49.937Z,82.64
2017-07-11T23:40:19.045Z,82.69
2017-07-11T23:42:48.106Z,83.03
2017-07-11T23:45:17.958Z,82.94
2017-07-11T23:47:47.787Z,82.79
2017-07-11T23:50:17.608Z,82.92
2017-07-11T23:52:46.674Z,83.26
2017-07-11T23:55:15.758Z,83.30
2017-07-11T23:57:44.812Z,83.25
